Time,TemperatureF,DewpointF,PressureIn,WindDirection,WindDirectionDegrees,WindSpeedMPH,WindSpeedGustMPH,Humidity,HourlyPrecipIn,Conditions,Clouds,dailyrainin,SoftwareType,DateUTC
2013-04-13 00:08:00,53.0,-99.9,29.89,SSE,159,8.0,12.0,-999,-99.99,,,-99.99,,2013-04-13 07:08:00,
2013-04-13 00:16:00,54.0,-99.9,29.89,SSE,152,6.0,10.0,-999,-99.99,,,-99.99,,2013-04-13 07:16:00,
2013-04-13 00:25:00,53.0,-99.9,29.89,SSE,153,5.0,11.0,-999,-99.99,,,-99.99,,2013-04-13 07:25:00,
2013-04-13 00:37:00,53.0,-99.9,29.89,SSE,163,8.0,12.0,-999,-99.99,,,-99.99,,2013-04-13 07:37:00,
2013-04-13 00:46:00,54.0,-99.9,29.89,SSE,151,5.0,10.0,-999,-99.99,,,-99.99,,2013-04-13 07:46:00,
2013-04-13 00:58:00,53.0,-99.9,29.89,SSE,167,7.0,12.0,-999,-99.99,,,-99.99,,2013-04-13 07:58:00,
2013-04-13 01:07:00,53.0,-99.9,29.89,SSE,167,9.0,12.0,-999,-99.99,,,-99.99,,2013-04-13 08:07:00,
2013-04-13 01:35:00,53.0,-99.9,29.89,SE,146,9.0,11.0,-999,-99.99,,,-99.99,,2013-04-13 08:35:00,
2013-04-13 01:47:00,53.0,-99.9,29.89,SE,145,6.0,10.0,-999,-99.99,,,-99.99,,2013-04-13 08:47:00,
2013-04-13 01:55:00,53.0,-99.9,29.89,South,173,7.0,10.0,-999,-99.99,,,-99.99,,2013-04-13 08:55:00,
2013-04-13 02:06:00,53.0,-99.9,29.88,SSE,163,9.0,12.0,-999,-99.99,,,-99.99,,2013-04-13 09:06:00,
2013-04-13 02:15:00,53.0,-99.9,29.88,SSE,155,7.0,11.0,-999,-99.99,,,-99.99,,2013-04-13 09:15:00,
2013-04-13 02:38:00,53.0,-99.9,29.88,SSE,149,9.0,13.0,-999,-99.99,,,-99.99,,2013-04-13 09:38:00,
2013-04-13 02:57:00,53.0,-99.9,29.87,SSE,157,6.0,12.0,-999,-99.99,,,-99.99,,2013-04-13 09:57:00,
2013-04-13 03:05:00,53.0,-99.9,29.87,SSE,158,7.0,12.0,-999,-99.99,,,-99.99,,2013-04-13 10:05:00,
2013-04-13 03:16:00,52.0,-99.9,29.87,SSE,159,9.0,12.0,-999,-99.99,,,-99.99,,2013-04-13 10:16:00,
2013-04-13 03:25:00,52.0,-99.9,29.87,SSE,163,9.0,13.0,-999,-99.99,,,-99.99,,2013-04-13 10:25:00,
2013-04-13 03:38:00,52.0,-99.9,29.87,SSE,168,10.0,12.0,-999,-99.99,,,-99.99,,2013-04-13 10:38:00,
2013-04-13 03:51:00,53.0,-99.9,29.86,SSE,151,6.0,12.0,-999,-99.99,,,-99.99,,2013-04-13 10:51:00,
2013-04-13 04:08:00,52.0,-99.9,29.85,SSE,147,8.0,13.0,-999,-99.99,,,-99.99,,2013-04-13 11:08:00,
2013-04-13 04:24:00,51.0,-99.9,29.86,SSE,168,10.0,12.0,-999,-99.99,,,-99.99,,2013-04-13 11:24:00,
2013-04-13 04:35:00,52.0,-99.9,29.85,SSE,166,9.0,13.0,-999,-99.99,,,-99.99,,2013-04-13 11:35:00,
2013-04-13 04:54:00,52.0,-99.9,29.86,SSE,164,7.0,11.0,-999,-99.99,,,-99.99,,2013-04-13 11:54:00,
2013-04-13 05:08:00,52.0,-99.9,29.86,SSE,163,6.0,10.0,-999,-99.99,,,-99.99,,2013-04-13 12:08:00,
2013-04-13 05:17:00,51.0,-99.9,29.87,South,171,7.0,10.0,-999,-99.99,,,-99.99,,2013-04-13 12:17:00,
2013-04-13 05:25:00,52.0,-99.9,29.86,SSE,163,7.0,9.0,-999,-99.99,,,-99.99,,2013-04-13 12:25:00,
2013-04-13 05:49:00,52.0,-99.9,29.86,SSE,149,5.0,8.0,-999,-99.99,,,-99.99,,2013-04-13 12:49:00,
2013-04-13 06:08:00,52.0,-99.9,29.86,SSE,165,5.0,10.0,-999,-99.99,,,-99.99,,2013-04-13 13:08:00,
2013-04-13 06:16:00,52.0,-99.9,29.86,SSE,152,4.0,8.0,-999,-99.99,,,-99.99,,2013-04-13 13:16:00,
2013-04-13 06:31:00,52.0,-99.9,29.86,SSE,151,5.0,9.0,-999,-99.99,,,-99.99,,2013-04-13 13:31:00,
2013-04-13 06:37:00,52.0,-99.9,29.86,SE,145,5.0,8.0,-999,-99.99,,,-99.99,,2013-04-13 13:37:00,
2013-04-13 06:49:00,52.0,-99.9,29.87,SSE,149,5.0,9.0,-999,-99.99,,,-99.99,,2013-04-13 13:49:00,
2013-04-13 06:58:00,52.0,-99.9,29.86,SE,142,6.0,9.0,-999,-99.99,,,-99.99,,2013-04-13 13:58:00,
2013-04-13 07:05:00,52.0,-99.9,29.87,SSE,156,5.0,8.0,-999,-99.99,,,-99.99,,2013-04-13 14:05:00,
2013-04-13 07:15:00,52.0,-99.9,29.87,SE,144,6.0,8.0,-999,-99.99,,,-99.99,,2013-04-13 14:15:00,
2013-04-13 07:24:00,52.0,-99.9,29.87,SSE,162,6.0,9.0,-999,-99.99,,,-99.99,,2013-04-13 14:24:00,
2013-04-13 07:39:00,52.0,-99.9,29.88,SSE,150,4.0,7.0,-999,-99.99,,,-99.99,,2013-04-13 14:39:00,
2013-04-13 07:48:00,53.0,-99.9,29.89,SE,144,5.0,8.0,-999,-99.99,,,-99.99,,2013-04-13 14:48:00,
2013-04-13 08:00:00,53.0,-99.9,29.88,SE,146,6.0,9.0,-999,-99.99,,,-99.99,,2013-04-13 15:00:00,
2013-04-13 08:06:00,53.0,-99.9,29.89,SSE,151,6.0,11.0,-999,-99.99,,,-99.99,,2013-04-13 15:06:00,
2013-04-13 08:15:00,53.0,-99.9,29.89,SSE,157,8.0,11.0,-999,-99.99,,,-99.99,,2013-04-13 15:15:00,
2013-04-13 08:38:00,53.0,-99.9,29.90,SSE,164,7.0,10.0,-999,-99.99,,,-99.99,,2013-04-13 15:38:00,
2013-04-13 08:45:00,53.0,-99.9,29.90,SSE,165,7.0,10.0,-999,-99.99,,,-99.99,,2013-04-13 15:45:00,
2013-04-13 08:59:00,53.0,-99.9,29.91,South,184,5.0,7.0,-999,-99.99,,,-99.99,,2013-04-13 15:59:00,
2013-04-13 09:08:00,53.0,-99.9,29.91,SSE,165,6.0,7.0,-999,-99.99,,,-99.99,,2013-04-13 16:08:00,
2013-04-13 09:16:00,53.0,-99.9,29.91,SSW,201,4.0,7.0,-999,-99.99,,,-99.99,,2013-04-13 16:16:00,
2013-04-13 09:25:00,54.0,-99.9,29.91,SSE,159,4.0,7.0,-999,-99.99,,,-99.99,,2013-04-13 16:25:00,
2013-04-13 09:37:00,54.0,-99.9,29.91,SSE,162,6.0,8.0,-999,-99.99,,,-99.99,,2013-04-13 16:37:00,
2013-04-13 09:48:00,54.0,-99.9,29.91,SSE,165,5.0,9.0,-999,-99.99,,,-99.99,,2013-04-13 16:48:00,
2013-04-13 09:59:00,54.0,-99.9,29.91,SSE,164,7.0,10.0,-999,-99.99,,,-99.99,,2013-04-13 16:59:00,
2013-04-13 10:08:00,55.0,-99.9,29.91,SSE,156,7.0,10.0,-999,-99.99,,,-99.99,,2013-04-13 17:08:00,
2013-04-13 10:23:00,55.0,-99.9,29.91,SSE,154,6.0,11.0,-999,-99.99,,,-99.99,,2013-04-13 17:23:00,
2013-04-13 10:39:00,56.0,-99.9,29.91,SSE,154,7.0,11.0,-999,-99.99,,,-99.99,,2013-04-13 17:39:00,
2013-04-13 10:45:00,57.0,-99.9,29.91,SSE,149,4.0,9.0,-999,-99.99,,,-99.99,,2013-04-13 17:45:00,
2013-04-13 11:04:00,56.0,-99.9,29.91,SSE,157,7.0,11.0,-999,-99.99,,,-99.99,,2013-04-13 18:04:00,
2013-04-13 11:16:00,56.0,-99.9,29.91,SSE,162,7.0,11.0,-999,-99.99,,,-99.99,,2013-04-13 18:16:00,
2013-04-13 11:33:00,57.0,-99.9,29.91,SSE,161,6.0,10.0,-999,-99.99,,,-99.99,,2013-04-13 18:33:00,
2013-04-13 11:42:00,57.0,-99.9,29.90,SSE,160,6.0,11.0,-999,-99.99,,,-99.99,,2013-04-13 18:42:00,
2013-04-13 11:53:00,57.0,-99.9,29.90,SSE,164,9.0,12.0,-999,-99.99,,,-99.99,,2013-04-13 18:53:00,
2013-04-13 12:03:00,57.0,-99.9,29.90,SSE,168,9.0,12.0,-999,-99.99,,,-99.99,,2013-04-13 19:03:00,
2013-04-13 12:12:00,57.0,-99.9,29.90,South,171,7.0,11.0,-999,-99.99,,,-99.99,,2013-04-13 19:12:00,
2013-04-13 12:23:00,57.0,-99.9,29.90,South,169,9.0,12.0,-999,-99.99,,,-99.99,,2013-04-13 19:23:00,
2013-04-13 12:33:00,57.0,-99.9,29.90,SSE,166,10.0,13.0,-999,-99.99,,,-99.99,,2013-04-13 19:33:00,
2013-04-13 12:42:00,57.0,-99.9,29.89,South,172,10.0,12.0,-999,-99.99,,,-99.99,,2013-04-13 19:42:00,
2013-04-13 12:53:00,57.0,-99.9,29.89,SSE,162,11.0,14.0,-999,-99.99,,,-99.99,,2013-04-13 19:53:00,
2013-04-13 13:02:00,57.0,-99.9,29.88,SSE,166,11.0,14.0,-999,-99.99,,,-99.99,,2013-04-13 20:02:00,
2013-04-13 13:13:00,57.0,-99.9,29.88,South,170,10.0,13.0,-999,-99.99,,,-99.99,,2013-04-13 20:13:00,
2013-04-13 13:22:00,57.0,-99.9,29.88,SSE,166,12.0,14.0,-999,-99.99,,,-99.99,,2013-04-13 20:22:00,
2013-04-13 13:32:00,57.0,-99.9,29.88,SSE,164,11.0,13.0,-999,-99.99,,,-99.99,,2013-04-13 20:32:00,
2013-04-13 13:42:00,58.0,-99.9,29.87,SSE,165,9.0,13.0,-999,-99.99,,,-99.99,,2013-04-13 20:42:00,
2013-04-13 13:53:00,59.0,-99.9,29.86,SE,145,6.0,11.0,-999,-99.99,,,-99.99,,2013-04-13 20:53:00,
2013-04-13 14:02:00,60.0,-99.9,29.86,SSE,157,4.0,9.0,-999,-99.99,,,-99.99,,2013-04-13 21:02:00,
2013-04-13 14:12:00,61.0,-99.9,29.86,SSE,149,4.0,8.0,-999,-99.99,,,-99.99,,2013-04-13 21:12:00,
2013-04-13 14:22:00,62.0,-99.9,29.85,SSW,211,3.0,7.0,-999,-99.99,,,-99.99,,2013-04-13 21:22:00,
2013-04-13 14:33:00,61.0,-99.9,29.85,NW,326,15.0,17.0,-999,-99.99,,,-99.99,,2013-04-13 21:33:00,
2013-04-13 14:43:00,62.0,-99.9,29.85,NW,325,13.0,17.0,-999,-99.99,,,-99.99,,2013-04-13 21:43:00,
2013-04-13 14:53:00,61.0,-99.9,29.85,NW,326,19.0,21.0,-999,-99.99,,,-99.99,,2013-04-13 21:53:00,
2013-04-13 15:03:00,61.0,-99.9,29.85,NNW,329,19.0,22.0,-999,-99.99,,,-99.99,,2013-04-13 22:03:00,
2013-04-13 15:13:00,61.0,-99.9,29.85,NNW,336,15.0,19.0,-999,-99.99,,,-99.99,,2013-04-13 22:13:00,
2013-04-13 15:23:00,61.0,-99.9,29.85,NW,325,14.0,17.0,-999,-99.99,,,-99.99,,2013-04-13 22:23:00,
2013-04-13 15:33:00,61.0,-99.9,29.85,NW,326,13.0,16.0,-999,-99.99,,,-99.99,,2013-04-13 22:33:00,
2013-04-13 15:42:00,60.0,-99.9,29.85,NNW,328,15.0,17.0,-999,-99.99,,,-99.99,,2013-04-13 22:42:00,
2013-04-13 15:53:00,61.0,-99.9,29.85,NW,324,13.0,18.0,-999,-99.99,,,-99.99,,2013-04-13 22:53:00,
2013-04-13 16:02:00,61.0,-99.9,29.83,NW,318,13.0,16.0,-999,-99.99,,,-99.99,,2013-04-13 23:02:00,
2013-04-13 16:12:00,62.0,-99.9,29.83,NW,318,13.0,17.0,-999,-99.99,,,-99.99,,2013-04-13 23:12:00,
2013-04-13 16:22:00,62.0,-99.9,29.83,NW,323,12.0,17.0,-999,-99.99,,,-99.99,,2013-04-13 23:22:00,
2013-04-13 16:33:00,62.0,-99.9,29.83,NW,307,15.0,20.0,-999,-99.99,,,-99.99,,2013-04-13 23:33:00,
2013-04-13 16:43:00,62.0,-99.9,29.83,NW,309,16.0,21.0,-999,-99.99,,,-99.99,,2013-04-13 23:43:00,
2013-04-13 16:53:00,61.0,-99.9,29.83,NW,320,13.0,17.0,-999,-99.99,,,-99.99,,2013-04-13 23:53:00,
2013-04-13 17:03:00,61.0,-99.9,29.83,NW,320,13.0,16.0,-999,-99.99,,,-99.99,,2013-04-14 00:03:00,
2013-04-13 17:12:00,61.0,-99.9,29.83,NW,326,13.0,20.0,-999,-99.99,,,-99.99,,2013-04-14 00:12:00,
2013-04-13 17:22:00,61.0,-99.9,29.83,NW,309,13.0,16.0,-999,-99.99,,,-99.99,,2013-04-14 00:22:00,
2013-04-13 17:32:00,61.0,-99.9,29.83,NW,310,15.0,21.0,-999,-99.99,,,-99.99,,2013-04-14 00:32:00,
2013-04-13 17:42:00,61.0,-99.9,29.83,NW,312,11.0,16.0,-999,-99.99,,,-99.99,,2013-04-14 00:42:00,
2013-04-13 17:52:00,61.0,-99.9,29.83,WNW,303,11.0,14.0,-999,-99.99,,,-99.99,,2013-04-14 00:52:00,
2013-04-13 18:13:00,61.0,-99.9,29.83,NW,309,16.0,19.0,-999,-99.99,,,-99.99,,2013-04-14 01:13:00,
2013-04-13 18:23:00,61.0,-99.9,29.83,WNW,295,8.0,16.0,-999,-99.99,,,-99.99,,2013-04-14 01:23:00,
2013-04-13 18:33:00,61.0,-99.9,29.84,WNW,292,3.0,10.0,-999,-99.99,,,-99.99,,2013-04-14 01:33:00,
2013-04-13 18:43:00,61.0,-99.9,29.84,WNW,288,5.0,13.0,-999,-99.99,,,-99.99,,2013-04-14 01:43:00,
2013-04-13 18:53:00,60.0,-99.9,29.84,NW,309,9.0,13.0,-999,-99.99,,,-99.99,,2013-04-14 01:53:00,
2013-04-13 19:03:00,59.0,-99.9,29.84,WNW,303,8.0,15.0,-999,-99.99,,,-99.99,,2013-04-14 02:03:00,
2013-04-13 19:13:00,60.0,-99.9,29.85,WNW,302,11.0,13.0,-999,-99.99,,,-99.99,,2013-04-14 02:13:00,
2013-04-13 19:33:00,59.0,-99.9,29.85,WNW,297,9.0,11.0,-999,-99.99,,,-99.99,,2013-04-14 02:33:00,
2013-04-13 19:43:00,58.0,-99.9,29.85,NW,307,8.0,11.0,-999,-99.99,,,-99.99,,2013-04-14 02:43:00,
2013-04-13 19:53:00,57.0,-99.9,29.85,NW,319,11.0,14.0,-999,-99.99,,,-99.99,,2013-04-14 02:53:00,
2013-04-13 20:03:00,56.0,-99.9,29.85,NW,311,9.0,13.0,-999,-99.99,,,-99.99,,2013-04-14 03:03:00,
2013-04-13 20:13:00,56.0,-99.9,29.85,NW,307,9.0,12.0,-999,-99.99,,,-99.99,,2013-04-14 03:13:00,
2013-04-13 20:33:00,55.0,-99.9,29.86,NW,305,12.0,18.0,-999,-99.99,,,-99.99,,2013-04-14 03:33:00,
2013-04-13 20:43:00,55.0,-99.9,29.86,WNW,302,12.0,15.0,-999,-99.99,,,-99.99,,2013-04-14 03:43:00,
2013-04-13 20:53:00,55.0,-99.9,29.86,NW,311,13.0,16.0,-999,-99.99,,,-99.99,,2013-04-14 03:53:00,
2013-04-13 21:03:00,56.0,-99.9,29.86,NW,313,12.0,17.0,-999,-99.99,,,-99.99,,2013-04-14 04:03:00,
2013-04-13 21:13:00,55.0,-99.9,29.87,NW,321,14.0,18.0,-999,-99.99,,,-99.99,,2013-04-14 04:13:00,
2013-04-13 21:23:00,55.0,-99.9,29.87,NW,324,13.0,17.0,-999,-99.99,,,-99.99,,2013-04-14 04:23:00,
2013-04-13 21:33:00,55.0,-99.9,29.88,NW,321,13.0,17.0,-999,-99.99,,,-99.99,,2013-04-14 04:33:00,
2013-04-13 21:43:00,55.0,-99.9,29.88,NW,321,13.0,17.0,-999,-99.99,,,-99.99,,2013-04-14 04:43:00,
2013-04-13 21:53:00,56.0,-99.9,29.88,NW,318,11.0,14.0,-999,-99.99,,,-99.99,,2013-04-14 04:53:00,
2013-04-13 22:03:00,56.0,-99.9,29.88,NW,318,11.0,14.0,-999,-99.99,,,-99.99,,2013-04-14 05:03:00,
2013-04-13 22:12:00,55.0,-99.9,29.89,NW,320,11.0,15.0,-999,-99.99,,,-99.99,,2013-04-14 05:12:00,
2013-04-13 22:23:00,55.0,-99.9,29.90,NW,312,11.0,15.0,-999,-99.99,,,-99.99,,2013-04-14 05:23:00,
2013-04-13 22:32:00,54.0,-99.9,29.90,NW,320,9.0,14.0,-999,-99.99,,,-99.99,,2013-04-14 05:32:00,
2013-04-13 22:43:00,55.0,-99.9,29.90,NW,317,9.0,11.0,-999,-99.99,,,-99.99,,2013-04-14 05:43:00,
2013-04-13 22:53:00,55.0,-99.9,29.90,NW,310,10.0,15.0,-999,-99.99,,,-99.99,,2013-04-14 05:53:00,
2013-04-13 23:02:00,55.0,-99.9,29.90,NW,311,9.0,14.0,-999,-99.99,,,-99.99,,2013-04-14 06:02:00,
2013-04-13 23:12:00,55.0,-99.9,29.90,NW,308,9.0,12.0,-999,-99.99,,,-99.99,,2013-04-14 06:12:00,
2013-04-13 23:22:00,55.0,-99.9,29.90,NW,308,10.0,12.0,-999,-99.99,,,-99.99,,2013-04-14 06:22:00,
2013-04-13 23:32:00,55.0,-99.9,29.90,WNW,303,10.0,13.0,-999,-99.99,,,-99.99,,2013-04-14 06:32:00,
2013-04-13 23:53:00,54.0,-99.9,29.90,NW,319,11.0,14.0,-999,-99.99,,,-99.99,,2013-04-14 06:53:00,